sensor_id;sensor_type;location;lat;lon;timestamp;temperature;humidity
43862;DHT22;29510;52.140;5.034;2022-12-07T00:05:40;4.20;99.90
43862;DHT22;29510;52.140;5.034;2022-12-07T00:15:41;4.40;99.90
43862;DHT22;29510;52.140;5.034;2022-12-07T00:25:42;4.30;99.90
43862;DHT22;29510;52.140;5.034;2022-12-07T00:35:43;4.20;99.90
43862;DHT22;29510;52.140;5.034;2022-12-07T00:45:44;4.00;99.90
43862;DHT22;29510;52.140;5.034;2022-12-07T00:55:45;3.90;99.90
43862;DHT22;29510;52.140;5.034;2022-12-07T01:05:54;3.80;99.90
43862;DHT22;29510;52.140;5.034;2022-12-07T01:16:00;3.80;99.90
43862;DHT22;29510;52.140;5.034;2022-12-07T01:26:04;3.60;99.90
43862;DHT22;29510;52.140;5.034;2022-12-07T01:36:36;3.60;99.90
43862;DHT22;29510;52.140;5.034;2022-12-07T01:46:38;3.50;99.90
43862;DHT22;29510;52.140;5.034;2022-12-07T01:56:44;3.40;99.90
43862;DHT22;29510;52.140;5.034;2022-12-07T02:06:47;3.40;99.90
43862;DHT22;29510;52.140;5.034;2022-12-07T02:27:34;3.90;99.90
43862;DHT22;29510;52.140;5.034;2022-12-07T02:37:48;4.00;99.90
43862;DHT22;29510;52.140;5.034;2022-12-07T02:47:53;3.90;99.90
43862;DHT22;29510;52.140;5.034;2022-12-07T02:58:23;3.60;99.90
43862;DHT22;29510;52.140;5.034;2022-12-07T03:29:31;2.90;99.90
43862;DHT22;29510;52.140;5.034;2022-12-07T03:39:43;2.80;99.90
43862;DHT22;29510;52.140;5.034;2022-12-07T03:49:55;2.70;99.90
43862;DHT22;29510;52.140;5.034;2022-12-07T03:59:59;2.60;99.90
43862;DHT22;29510;52.140;5.034;2022-12-07T04:10:01;2.60;99.90
43862;DHT22;29510;52.140;5.034;2022-12-07T04:20:03;2.70;99.90
43862;DHT22;29510;52.140;5.034;2022-12-07T04:30:05;2.70;99.90
43862;DHT22;29510;52.140;5.034;2022-12-07T04:40:10;2.50;99.90
43862;DHT22;29510;52.140;5.034;2022-12-07T04:50:11;2.50;99.90
43862;DHT22;29510;52.140;5.034;2022-12-07T05:00:13;2.70;99.90
43862;DHT22;29510;52.140;5.034;2022-12-07T05:10:14;2.70;99.90
43862;DHT22;29510;52.140;5.034;2022-12-07T05:20:15;2.60;99.90
43862;DHT22;29510;52.140;5.034;2022-12-07T05:30:16;2.60;99.90
43862;DHT22;29510;52.140;5.034;2022-12-07T05:40:17;2.60;99.90
43862;DHT22;29510;52.140;5.034;2022-12-07T05:50:19;2.80;99.90
43862;DHT22;29510;52.140;5.034;2022-12-07T06:00:21;2.90;99.90
43862;DHT22;29510;52.140;5.034;2022-12-07T06:10:22;3.00;99.90
43862;DHT22;29510;52.140;5.034;2022-12-07T06:20:23;3.00;99.90
43862;DHT22;29510;52.140;5.034;2022-12-07T06:30:24;3.00;99.90
43862;DHT22;29510;52.140;5.034;2022-12-07T06:40:25;3.20;99.90
43862;DHT22;29510;52.140;5.034;2022-12-07T06:50:26;3.20;99.90
43862;DHT22;29510;52.140;5.034;2022-12-07T07:00:27;3.10;99.90
43862;DHT22;29510;52.140;5.034;2022-12-07T07:10:28;3.10;99.90
43862;DHT22;29510;52.140;5.034;2022-12-07T07:20:29;3.00;99.90
43862;DHT22;29510;52.140;5.034;2022-12-07T07:30:30;2.70;99.90
43862;DHT22;29510;52.140;5.034;2022-12-07T07:40:31;2.60;99.90
43862;DHT22;29510;52.140;5.034;2022-12-07T07:50:32;2.50;99.90
43862;DHT22;29510;52.140;5.034;2022-12-07T08:00:33;2.40;99.90
43862;DHT22;29510;52.140;5.034;2022-12-07T08:10:34;2.40;99.90
43862;DHT22;29510;52.140;5.034;2022-12-07T08:20:37;2.40;99.90
43862;DHT22;29510;52.140;5.034;2022-12-07T08:30:38;2.50;99.90
43862;DHT22;29510;52.140;5.034;2022-12-07T08:40:39;3.00;99.90
43862;DHT22;29510;52.140;5.034;2022-12-07T08:50:41;3.20;99.90
43862;DHT22;29510;52.140;5.034;2022-12-07T09:00:42;3.40;99.90
43862;DHT22;29510;52.140;5.034;2022-12-07T09:10:43;3.60;99.90
43862;DHT22;29510;52.140;5.034;2022-12-07T09:20:44;3.90;99.90
43862;DHT22;29510;52.140;5.034;2022-12-07T09:30:46;4.20;99.90
43862;DHT22;29510;52.140;5.034;2022-12-07T09:40:48;4.50;99.90
43862;DHT22;29510;52.140;5.034;2022-12-07T09:50:50;4.60;99.90
43862;DHT22;29510;52.140;5.034;2022-12-07T10:01:20;4.70;99.90
43862;DHT22;29510;52.140;5.034;2022-12-07T10:11:22;5.00;99.90
43862;DHT22;29510;52.140;5.034;2022-12-07T10:21:24;5.20;99.90
43862;DHT22;29510;52.140;5.034;2022-12-07T10:31:26;5.40;99.90
43862;DHT22;29510;52.140;5.034;2022-12-07T10:41:27;5.80;99.90
43862;DHT22;29510;52.140;5.034;2022-12-07T11:02:17;5.50;99.90
43862;DHT22;29510;52.140;5.034;2022-12-07T11:12:29;5.50;99.90
43862;DHT22;29510;52.140;5.034;2022-12-07T11:22:54;5.60;99.90
43862;DHT22;29510;52.140;5.034;2022-12-07T11:43:26;6.20;99.90
43862;DHT22;29510;52.140;5.034;2022-12-07T11:53:29;6.00;99.90
43862;DHT22;29510;52.140;5.034;2022-12-07T12:03:35;5.90;99.90
43862;DHT22;29510;52.140;5.034;2022-12-07T12:23:57;8.10;99.90
43862;DHT22;29510;52.140;5.034;2022-12-07T12:34:03;7.40;99.90
43862;DHT22;29510;52.140;5.034;2022-12-07T12:54:29;6.50;99.90
43862;DHT22;29510;52.140;5.034;2022-12-07T13:04:50;6.50;99.90
43862;DHT22;29510;52.140;5.034;2022-12-07T13:14:55;6.70;99.90
43862;DHT22;29510;52.140;5.034;2022-12-07T13:24:58;6.70;99.90
43862;DHT22;29510;52.140;5.034;2022-12-07T13:34:59;6.90;99.90
43862;DHT22;29510;52.140;5.034;2022-12-07T13:45:21;6.10;99.90
43862;DHT22;29510;52.140;5.034;2022-12-07T13:55:47;5.60;99.90
43862;DHT22;29510;52.140;5.034;2022-12-07T14:06:07;5.50;99.90
43862;DHT22;29510;52.140;5.034;2022-12-07T14:16:26;5.80;99.90
43862;DHT22;29510;52.140;5.034;2022-12-07T14:26:28;5.80;99.90
43862;DHT22;29510;52.140;5.034;2022-12-07T14:36:29;5.70;99.90
43862;DHT22;29510;52.140;5.034;2022-12-07T14:46:30;5.70;99.90
43862;DHT22;29510;52.140;5.034;2022-12-07T14:56:31;5.60;99.90
43862;DHT22;29510;52.140;5.034;2022-12-07T15:06:32;5.50;99.90
43862;DHT22;29510;52.140;5.034;2022-12-07T15:16:34;5.30;99.90
43862;DHT22;29510;52.140;5.034;2022-12-07T15:26:36;5.20;99.90
43862;DHT22;29510;52.140;5.034;2022-12-07T15:36:37;5.20;99.90
43862;DHT22;29510;52.140;5.034;2022-12-07T15:46:40;5.10;99.90
43862;DHT22;29510;52.140;5.034;2022-12-07T15:56:41;5.10;99.90
43862;DHT22;29510;52.140;5.034;2022-12-07T16:06:42;5.00;99.90
43862;DHT22;29510;52.140;5.034;2022-12-07T16:16:43;4.90;99.90
43862;DHT22;29510;52.140;5.034;2022-12-07T16:26:44;4.90;99.90
43862;DHT22;29510;52.140;5.034;2022-12-07T16:36:45;4.80;99.90
43862;DHT22;29510;52.140;5.034;2022-12-07T16:46:46;4.80;99.90
43862;DHT22;29510;52.140;5.034;2022-12-07T16:56:48;4.70;99.90
43862;DHT22;29510;52.140;5.034;2022-12-07T17:06:49;4.60;99.90
43862;DHT22;29510;52.140;5.034;2022-12-07T17:16:50;4.50;99.90
43862;DHT22;29510;52.140;5.034;2022-12-07T17:26:51;4.50;99.90
43862;DHT22;29510;52.140;5.034;2022-12-07T17:36:52;4.50;99.90
43862;DHT22;29510;52.140;5.034;2022-12-07T17:46:55;4.60;99.90
43862;DHT22;29510;52.140;5.034;2022-12-07T17:57:02;4.50;99.90
43862;DHT22;29510;52.140;5.034;2022-12-07T18:07:03;4.60;99.90
43862;DHT22;29510;52.140;5.034;2022-12-07T18:17:06;4.60;99.90
43862;DHT22;29510;52.140;5.034;2022-12-07T18:27:07;4.60;99.90
43862;DHT22;29510;52.140;5.034;2022-12-07T18:37:09;4.50;99.90
43862;DHT22;29510;52.140;5.034;2022-12-07T18:47:10;4.50;99.90
43862;DHT22;29510;52.140;5.034;2022-12-07T18:57:11;4.50;99.90
43862;DHT22;29510;52.140;5.034;2022-12-07T19:07:12;4.50;99.90
43862;DHT22;29510;52.140;5.034;2022-12-07T19:17:13;4.50;99.90
43862;DHT22;29510;52.140;5.034;2022-12-07T19:27:15;4.50;99.90
43862;DHT22;29510;52.140;5.034;2022-12-07T19:37:16;4.50;99.90
43862;DHT22;29510;52.140;5.034;2022-12-07T19:47:17;4.50;99.90
43862;DHT22;29510;52.140;5.034;2022-12-07T19:57:18;4.50;99.90
43862;DHT22;29510;52.140;5.034;2022-12-07T20:07:20;4.50;99.90
43862;DHT22;29510;52.140;5.034;2022-12-07T20:17:21;4.50;99.90
43862;DHT22;29510;52.140;5.034;2022-12-07T20:27:22;4.40;99.90
43862;DHT22;29510;52.140;5.034;2022-12-07T20:37:23;4.40;99.90
43862;DHT22;29510;52.140;5.034;2022-12-07T20:47:24;4.30;99.90
43862;DHT22;29510;52.140;5.034;2022-12-07T20:57:25;4.30;99.90
43862;DHT22;29510;52.140;5.034;2022-12-07T21:07:26;4.20;99.90
43862;DHT22;29510;52.140;5.034;2022-12-07T21:17:27;4.20;99.90
43862;DHT22;29510;52.140;5.034;2022-12-07T21:27:28;4.20;99.90
43862;DHT22;29510;52.140;5.034;2022-12-07T21:37:29;4.20;99.90
43862;DHT22;29510;52.140;5.034;2022-12-07T21:47:31;4.20;99.90
43862;DHT22;29510;52.140;5.034;2022-12-07T21:57:32;4.20;99.90
43862;DHT22;29510;52.140;5.034;2022-12-07T22:07:33;4.10;99.90
43862;DHT22;29510;52.140;5.034;2022-12-07T22:17:35;4.10;99.90
43862;DHT22;29510;52.140;5.034;2022-12-07T22:27:36;4.10;99.90
43862;DHT22;29510;52.140;5.034;2022-12-07T22:37:37;4.20;99.90
43862;DHT22;29510;52.140;5.034;2022-12-07T22:47:38;4.20;99.90
43862;DHT22;29510;52.140;5.034;2022-12-07T22:57:40;4.30;99.90
43862;DHT22;29510;52.140;5.034;2022-12-07T23:07:41;4.40;99.90
43862;DHT22;29510;52.140;5.034;2022-12-07T23:17:42;4.40;99.90
43862;DHT22;29510;52.140;5.034;2022-12-07T23:27:44;4.50;99.90
43862;DHT22;29510;52.140;5.034;2022-12-07T23:37:45;4.40;99.90
43862;DHT22;29510;52.140;5.034;2022-12-07T23:47:46;4.30;99.90
43862;DHT22;29510;52.140;5.034;2022-12-07T23:57:47;4.30;99.90
